sensor_id;sensor_type;location;lat;lon;timestamp;pressure;altitude;pressure_sealevel;temperature;humidity
45793;BME280;31495;42.740;22.908;2023-07-30T00:00:01;92971.16;;;19.03;58.55
45793;BME280;31495;42.740;22.908;2023-07-30T00:01:01;92956.28;;;18.83;58.87
45793;BME280;31495;42.740;22.908;2023-07-30T00:02:00;92974.59;;;18.88;59.28
45793;BME280;31495;42.740;22.908;2023-07-30T00:03:00;92985.59;;;18.90;59.62
45793;BME280;31495;42.740;22.908;2023-07-30T00:03:59;92966.75;;;18.83;59.74
45793;BME280;31495;42.740;22.908;2023-07-30T00:04:58;92977.47;;;18.92;59.59
45793;BME280;31495;42.740;22.908;2023-07-30T00:05:58;92977.75;;;18.90;59.13
45793;BME280;31495;42.740;22.908;2023-07-30T00:06:57;92989.78;;;19.07;59.01
45793;BME280;31495;42.740;22.908;2023-07-30T00:07:57;92980.88;;;19.03;59.50
45793;BME280;31495;42.740;22.908;2023-07-30T00:08:56;92970.16;;;18.94;59.18
45793;BME280;31495;42.740;22.908;2023-07-30T00:09:56;92965.69;;;18.95;58.98
45793;BME280;31495;42.740;22.908;2023-07-30T00:10:59;92965.69;;;19.00;58.99
45793;BME280;31495;42.740;22.908;2023-07-30T00:11:58;92944.75;;;18.84;59.20
45793;BME280;31495;42.740;22.908;2023-07-30T00:12:57;92976.66;;;19.07;58.88
45793;BME280;31495;42.740;22.908;2023-07-30T00:13:57;92969.34;;;19.04;58.89
45793;BME280;31495;42.740;22.908;2023-07-30T00:14:56;92991.88;;;19.15;58.76
45793;BME280;31495;42.740;22.908;2023-07-30T00:15:56;92986.91;;;19.03;58.82
45793;BME280;31495;42.740;22.908;2023-07-30T00:16:55;92950.22;;;18.72;59.08
45793;BME280;31495;42.740;22.908;2023-07-30T00:17:54;92983.25;;;18.84;59.57
45793;BME280;31495;42.740;22.908;2023-07-30T00:18:54;92979.31;;;18.81;59.40
45793;BME280;31495;42.740;22.908;2023-07-30T00:19:53;92958.09;;;18.62;59.79
45793;BME280;31495;42.740;22.908;2023-07-30T00:20:53;92947.63;;;18.52;59.77
45793;BME280;31495;42.740;22.908;2023-07-30T00:21:52;92958.34;;;18.61;59.80
45793;BME280;31495;42.740;22.908;2023-07-30T00:22:52;92958.34;;;18.55;59.93
45793;BME280;31495;42.740;22.908;2023-07-30T00:23:51;92951.56;;;18.44;60.07
45793;BME280;31495;42.740;22.908;2023-07-30T00:24:51;92985.34;;;18.66;60.12
45793;BME280;31495;42.740;22.908;2023-07-30T00:25:50;92964.13;;;18.47;60.35
45793;BME280;31495;42.740;22.908;2023-07-30T00:26:50;92920.13;;;18.13;60.42
45793;BME280;31495;42.740;22.908;2023-07-30T00:27:50;92975.13;;;18.49;60.22
45793;BME280;31495;42.740;22.908;2023-07-30T00:28:49;92965.19;;;18.31;60.70
45793;BME280;31495;42.740;22.908;2023-07-30T00:29:48;92933.97;;;17.98;61.15
45793;BME280;31495;42.740;22.908;2023-07-30T00:30:48;92990.59;;;18.30;61.34
45793;BME280;31495;42.740;22.908;2023-07-30T00:31:47;92969.88;;;18.13;61.30
45793;BME280;31495;42.740;22.908;2023-07-30T00:32:47;92953.88;;;17.99;61.87
45793;BME280;31495;42.740;22.908;2023-07-30T00:33:46;92983.50;;;18.15;62.12
45793;BME280;31495;42.740;22.908;2023-07-30T00:34:46;92934.19;;;17.81;61.90
45793;BME280;31495;42.740;22.908;2023-07-30T00:35:45;92980.34;;;18.13;61.82
45793;BME280;31495;42.740;22.908;2023-07-30T00:36:45;92986.13;;;18.15;62.22
45793;BME280;31495;42.740;22.908;2023-07-30T00:37:44;92963.06;;;18.02;62.21
45793;BME280;31495;42.740;22.908;2023-07-30T00:38:43;92956.25;;;17.96;62.16
45793;BME280;31495;42.740;22.908;2023-07-30T00:39:43;92931.63;;;17.92;62.06
45793;BME280;31495;42.740;22.908;2023-07-30T00:40:42;92938.19;;;17.94;62.11
45793;BME280;31495;42.740;22.908;2023-07-30T00:41:42;92951.00;;;18.01;61.71
45793;BME280;31495;42.740;22.908;2023-07-30T00:42:41;92969.34;;;18.16;61.36
45793;BME280;31495;42.740;22.908;2023-07-30T00:43:41;92958.88;;;18.01;61.42
45793;BME280;31495;42.740;22.908;2023-07-30T00:44:40;92958.88;;;18.06;61.86
45793;BME280;31495;42.740;22.908;2023-07-30T00:45:41;92946.56;;;17.96;61.49
45793;BME280;31495;42.740;22.908;2023-07-30T00:46:42;92971.97;;;18.11;61.67
45793;BME280;31495;42.740;22.908;2023-07-30T00:47:42;92984.53;;;18.19;61.76
45793;BME280;31495;42.740;22.908;2023-07-30T00:48:42;92993.47;;;18.29;61.40
45793;BME280;31495;42.740;22.908;2023-07-30T00:49:42;92976.16;;;18.23;61.20
45793;BME280;31495;42.740;22.908;2023-07-30T00:50:42;92974.06;;;18.19;61.44
45793;BME280;31495;42.740;22.908;2023-07-30T00:51:42;92970.41;;;18.21;61.02
45793;BME280;31495;42.740;22.908;2023-07-30T00:52:43;92950.75;;;18.13;60.94
45793;BME280;31495;42.740;22.908;2023-07-30T00:53:43;92989.00;;;18.40;60.98
45793;BME280;31495;42.740;22.908;2023-07-30T00:54:42;92981.94;;;18.40;60.72
45793;BME280;31495;42.740;22.908;2023-07-30T00:55:41;92970.66;;;18.34;60.84
45793;BME280;31495;42.740;22.908;2023-07-30T00:56:49;92980.38;;;18.44;60.60
45793;BME280;31495;42.740;22.908;2023-07-30T00:57:50;92978.56;;;18.45;60.24
45793;BME280;31495;42.740;22.908;2023-07-30T00:58:50;92984.31;;;18.52;60.18
45793;BME280;31495;42.740;22.908;2023-07-30T00:59:51;92980.91;;;18.51;60.64
45793;BME280;31495;42.740;22.908;2023-07-30T01:00:54;92988.78;;;18.51;60.54
45793;BME280;31495;42.740;22.908;2023-07-30T01:01:56;92994.00;;;18.57;60.37
45793;BME280;31495;42.740;22.908;2023-07-30T01:02:56;92970.66;;;18.29;60.71
45793;BME280;31495;42.740;22.908;2023-07-30T01:03:56;92943.97;;;18.12;60.70
45793;BME280;31495;42.740;22.908;2023-07-30T01:04:56;92969.63;;;18.30;60.53
45793;BME280;31495;42.740;22.908;2023-07-30T01:05:58;92980.13;;;18.35;60.68
45793;BME280;31495;42.740;22.908;2023-07-30T01:06:58;92955.72;;;18.30;60.49
45793;BME280;31495;42.740;22.908;2023-07-30T01:07:57;92973.03;;;18.36;60.72
45793;BME280;31495;42.740;22.908;2023-07-30T01:08:57;92979.84;;;18.42;60.33
45793;BME280;31495;42.740;22.908;2023-07-30T01:09:57;92978.00;;;18.43;60.92
45793;BME280;31495;42.740;22.908;2023-07-30T01:10:57;92970.94;;;18.38;60.65
45793;BME280;31495;42.740;22.908;2023-07-30T01:11:58;92967.78;;;18.36;60.65
45793;BME280;31495;42.740;22.908;2023-07-30T01:13:03;92992.44;;;18.45;60.45
45793;BME280;31495;42.740;22.908;2023-07-30T01:14:04;92969.91;;;18.29;60.90
45793;BME280;31495;42.740;22.908;2023-07-30T01:15:05;92951.56;;;18.18;60.93
45793;BME280;31495;42.740;22.908;2023-07-30T01:16:05;92972.50;;;18.29;61.04
45793;BME280;31495;42.740;22.908;2023-07-30T01:17:06;92967.28;;;18.24;60.87
45793;BME280;31495;42.740;22.908;2023-07-30T01:18:06;92991.38;;;18.36;60.95
45793;BME280;31495;42.740;22.908;2023-07-30T01:19:06;92953.38;;;18.13;61.23
45793;BME280;31495;42.740;22.908;2023-07-30T01:20:06;92962.56;;;18.10;60.85
45793;BME280;31495;42.740;22.908;2023-07-30T01:21:06;92973.81;;;18.21;60.94
45793;BME280;31495;42.740;22.908;2023-07-30T01:22:05;92936.34;;;17.95;61.08
45793;BME280;31495;42.740;22.908;2023-07-30T01:23:04;92965.69;;;18.17;60.96
45793;BME280;31495;42.740;22.908;2023-07-30T01:24:04;92966.47;;;18.13;61.01
45793;BME280;31495;42.740;22.908;2023-07-30T01:25:04;92976.69;;;18.19;61.30
45793;BME280;31495;42.740;22.908;2023-07-30T01:26:10;92991.38;;;18.31;61.19
45793;BME280;31495;42.740;22.908;2023-07-30T01:27:16;92996.59;;;18.31;60.82
45793;BME280;31495;42.740;22.908;2023-07-30T01:28:17;92981.13;;;18.14;61.33
45793;BME280;31495;42.740;22.908;2023-07-30T01:29:42;92960.88;;;17.83;61.88
45793;BME280;31495;42.740;22.908;2023-07-30T01:30:41;92992.38;;;17.99;62.30
45793;BME280;31495;42.740;22.908;2023-07-30T01:31:43;92976.63;;;17.89;62.21
45793;BME280;31495;42.740;22.908;2023-07-30T01:32:43;92983.19;;;17.91;62.40
45793;BME280;31495;42.740;22.908;2023-07-30T01:33:47;92984.78;;;17.92;62.34
45793;BME280;31495;42.740;22.908;2023-07-30T01:34:49;92966.09;;;17.78;62.53
45793;BME280;31495;42.740;22.908;2023-07-30T01:35:50;92972.69;;;17.86;62.40
45793;BME280;31495;42.740;22.908;2023-07-30T01:36:51;92927.88;;;17.62;62.30
45793;BME280;31495;42.740;22.908;2023-07-30T01:37:52;92997.34;;;18.06;62.50
45793;BME280;31495;42.740;22.908;2023-07-30T01:38:52;92983.47;;;18.00;62.14
45793;BME280;31495;42.740;22.908;2023-07-30T01:39:52;92942.56;;;17.78;62.16
45793;BME280;31495;42.740;22.908;2023-07-30T01:40:52;92989.22;;;17.97;62.28
45793;BME280;31495;42.740;22.908;2023-07-30T01:41:55;92977.69;;;17.93;62.48
45793;BME280;31495;42.740;22.908;2023-07-30T01:42:54;92975.56;;;17.85;62.27
45793;BME280;31495;42.740;22.908;2023-07-30T01:43:53;92954.09;;;17.77;62.60
45793;BME280;31495;42.740;22.908;2023-07-30T01:44:53;92975.84;;;17.88;62.75
45793;BME280;31495;42.740;22.908;2023-07-30T01:45:52;92982.94;;;18.03;61.88
45793;BME280;31495;42.740;22.908;2023-07-30T01:46:52;92997.88;;;18.13;62.17
45793;BME280;31495;42.740;22.908;2023-07-30T01:47:52;92976.66;;;17.99;61.80
45793;BME280;31495;42.740;22.908;2023-07-30T01:48:51;92991.88;;;18.07;62.03
45793;BME280;31495;42.740;22.908;2023-07-30T01:49:51;92966.97;;;17.89;61.74
45793;BME280;31495;42.740;22.908;2023-07-30T01:50:50;92981.09;;;17.98;61.93
45793;BME280;31495;42.740;22.908;2023-07-30T01:51:49;92954.09;;;17.82;61.72
45793;BME280;31495;42.740;22.908;2023-07-30T01:52:49;92990.28;;;18.01;61.93
45793;BME280;31495;42.740;22.908;2023-07-30T01:53:48;92976.94;;;17.97;61.96
45793;BME280;31495;42.740;22.908;2023-07-30T01:54:48;92974.53;;;17.86;61.85
45793;BME280;31495;42.740;22.908;2023-07-30T01:55:47;92991.28;;;17.90;62.10
45793;BME280;31495;42.740;22.908;2023-07-30T01:56:47;92998.13;;;17.91;62.40
45793;BME280;31495;42.740;22.908;2023-07-30T01:57:47;93001.25;;;17.88;62.61
45793;BME280;31495;42.740;22.908;2023-07-30T01:58:47;92973.66;;;17.64;62.89
45793;BME280;31495;42.740;22.908;2023-07-30T01:59:46;92999.63;;;17.87;63.21
45793;BME280;31495;42.740;22.908;2023-07-30T02:00:45;92977.56;;;17.62;63.26
45793;BME280;31495;42.740;22.908;2023-07-30T02:01:46;92968.38;;;17.54;63.53
45793;BME280;31495;42.740;22.908;2023-07-30T02:02:45;92978.31;;;17.52;63.69
45793;BME280;31495;42.740;22.908;2023-07-30T02:03:44;92973.88;;;17.53;63.80
45793;BME280;31495;42.740;22.908;2023-07-30T02:04:44;92971.31;;;17.58;63.75
45793;BME280;31495;42.740;22.908;2023-07-30T02:05:43;92948.22;;;17.44;63.47
45793;BME280;31495;42.740;22.908;2023-07-30T02:06:43;92998.03;;;17.80;63.08
45793;BME280;31495;42.740;22.908;2023-07-30T02:07:43;92967.88;;;17.62;63.22
45793;BME280;31495;42.740;22.908;2023-07-30T02:08:42;92990.44;;;17.74;63.24
45793;BME280;31495;42.740;22.908;2023-07-30T02:09:43;92973.69;;;17.70;63.03
45793;BME280;31495;42.740;22.908;2023-07-30T02:10:42;92942.47;;;17.48;62.86
45793;BME280;31495;42.740;22.908;2023-07-30T02:11:41;92967.63;;;17.59;63.39
45793;BME280;31495;42.740;22.908;2023-07-30T02:12:41;92963.69;;;17.51;63.44
45793;BME280;31495;42.740;22.908;2023-07-30T02:13:40;92987.78;;;17.58;63.52
45793;BME280;31495;42.740;22.908;2023-07-30T02:14:40;92983.59;;;17.62;63.30
45793;BME280;31495;42.740;22.908;2023-07-30T02:15:40;92986.50;;;17.66;62.96
45793;BME280;31495;42.740;22.908;2023-07-30T02:16:41;93008.50;;;17.80;63.19
45793;BME280;31495;42.740;22.908;2023-07-30T02:17:40;92964.75;;;17.55;63.00
45793;BME280;31495;42.740;22.908;2023-07-30T02:18:40;92972.59;;;17.55;62.95
45793;BME280;31495;42.740;22.908;2023-07-30T02:19:40;93003.50;;;17.69;63.12
45793;BME280;31495;42.740;22.908;2023-07-30T02:20:40;92978.59;;;17.51;63.21
45793;BME280;31495;42.740;22.908;2023-07-30T02:21:39;92982.53;;;17.58;63.04
45793;BME280;31495;42.740;22.908;2023-07-30T02:22:42;93009.81;;;17.78;62.61
45793;BME280;31495;42.740;22.908;2023-07-30T02:23:41;92964.47;;;17.47;62.61
45793;BME280;31495;42.740;22.908;2023-07-30T02:24:40;92988.03;;;17.57;62.56
45793;BME280;31495;42.740;22.908;2023-07-30T02:25:40;92992.00;;;17.70;62.40
45793;BME280;31495;42.740;22.908;2023-07-30T02:26:39;92981.44;;;17.49;62.56
45793;BME280;31495;42.740;22.908;2023-07-30T02:27:39;92979.59;;;17.44;63.10
45793;BME280;31495;42.740;22.908;2023-07-30T02:28:38;92998.19;;;17.48;62.78
45793;BME280;31495;42.740;22.908;2023-07-30T02:29:37;92988.75;;;17.42;63.45
45793;BME280;31495;42.740;22.908;2023-07-30T02:30:37;92985.84;;;17.33;63.25
45793;BME280;31495;42.740;22.908;2023-07-30T02:31:37;92971.91;;;17.17;63.36
45793;BME280;31495;42.740;22.908;2023-07-30T02:32:36;92977.97;;;17.28;63.52
45793;BME280;31495;42.740;22.908;2023-07-30T02:33:36;92972.97;;;17.21;63.21
45793;BME280;31495;42.740;22.908;2023-07-30T02:34:35;92961.13;;;17.08;63.56
45793;BME280;31495;42.740;22.908;2023-07-30T02:35:35;92975.28;;;17.13;63.67
45793;BME280;31495;42.740;22.908;2023-07-30T02:36:35;92987.31;;;17.14;63.92
45793;BME280;31495;42.740;22.908;2023-07-30T02:37:34;92986.25;;;17.15;63.86
45793;BME280;31495;42.740;22.908;2023-07-30T02:38:34;92960.06;;;16.99;63.64
45793;BME280;31495;42.740;22.908;2023-07-30T02:39:33;92976.81;;;17.08;63.76
45793;BME280;31495;42.740;22.908;2023-07-30T02:40:33;92975.81;;;17.15;63.87
45793;BME280;31495;42.740;22.908;2023-07-30T02:41:32;93009.91;;;17.35;63.66
45793;BME280;31495;42.740;22.908;2023-07-30T02:42:32;93004.94;;;17.34;63.60
45793;BME280;31495;42.740;22.908;2023-07-30T02:43:31;92972.38;;;17.04;63.86
45793;BME280;31495;42.740;22.908;2023-07-30T02:44:30;92983.06;;;17.02;63.97
45793;BME280;31495;42.740;22.908;2023-07-30T02:45:30;93009.78;;;17.15;64.40
45793;BME280;31495;42.740;22.908;2023-07-30T02:46:29;92998.78;;;17.07;64.62
45793;BME280;31495;42.740;22.908;2023-07-30T02:47:28;92942.06;;;16.70;64.48
45793;BME280;31495;42.740;22.908;2023-07-30T02:48:28;93003.50;;;17.11;64.73
45793;BME280;31495;42.740;22.908;2023-07-30T02:49:27;93002.44;;;17.06;64.64
45793;BME280;31495;42.740;22.908;2023-07-30T02:50:27;92986.19;;;16.99;64.69
45793;BME280;31495;42.740;22.908;2023-07-30T02:51:26;92990.16;;;17.07;64.53
45793;BME280;31495;42.740;22.908;2023-07-30T02:52:25;92989.31;;;17.01;64.20
45793;BME280;31495;42.740;22.908;2023-07-30T02:53:25;93010.78;;;17.08;64.42
45793;BME280;31495;42.740;22.908;2023-07-30T02:54:24;92986.38;;;16.87;64.33
45793;BME280;31495;42.740;22.908;2023-07-30T02:55:24;93000.75;;;16.90;64.94
45793;BME280;31495;42.740;22.908;2023-07-30T02:56:23;93012.78;;;16.91;65.26
45793;BME280;31495;42.740;22.908;2023-07-30T02:57:22;92994.59;;;16.74;65.43
45793;BME280;31495;42.740;22.908;2023-07-30T02:58:22;93020.41;;;16.98;65.20
45793;BME280;31495;42.740;22.908;2023-07-30T02:59:21;93013.09;;;17.00;64.77
45793;BME280;31495;42.740;22.908;2023-07-30T03:00:21;92991.28;;;16.84;64.72
45793;BME280;31495;42.740;22.908;2023-07-30T03:01:20;93015.47;;;17.01;64.89
45793;BME280;31495;42.740;22.908;2023-07-30T03:02:19;93013.31;;;16.93;65.29
45793;BME280;31495;42.740;22.908;2023-07-30T03:03:19;92981.88;;;16.83;64.88
45793;BME280;31495;42.740;22.908;2023-07-30T03:04:18;92994.75;;;16.89;64.55
45793;BME280;31495;42.740;22.908;2023-07-30T03:05:17;93014.22;;;17.09;64.84
45793;BME280;31495;42.740;22.908;2023-07-30T03:06:17;92973.97;;;16.72;64.64
45793;BME280;31495;42.740;22.908;2023-07-30T03:07:16;92996.59;;;16.89;64.64
45793;BME280;31495;42.740;22.908;2023-07-30T03:08:17;93017.81;;;17.03;64.75
45793;BME280;31495;42.740;22.908;2023-07-30T03:09:17;92963.22;;;16.69;64.76
45793;BME280;31495;42.740;22.908;2023-07-30T03:10:17;93021.78;;;17.05;64.59
45793;BME280;31495;42.740;22.908;2023-07-30T03:11:17;93014.31;;;16.87;64.82
45793;BME280;31495;42.740;22.908;2023-07-30T03:12:16;92996.69;;;16.72;65.53
45793;BME280;31495;42.740;22.908;2023-07-30T03:13:15;92996.56;;;16.51;65.96
45793;BME280;31495;42.740;22.908;2023-07-30T03:14:15;93031.06;;;16.59;66.26
45793;BME280;31495;42.740;22.908;2023-07-30T03:15:15;93013.81;;;16.58;66.59
45793;BME280;31495;42.740;22.908;2023-07-30T03:16:14;93018.50;;;16.56;66.66
45793;BME280;31495;42.740;22.908;2023-07-30T03:17:14;92986.38;;;16.23;66.53
45793;BME280;31495;42.740;22.908;2023-07-30T03:18:13;92992.44;;;16.28;66.68
45793;BME280;31495;42.740;22.908;2023-07-30T03:19:13;92961.72;;;16.08;66.60
45793;BME280;31495;42.740;22.908;2023-07-30T03:20:13;93005.09;;;16.42;66.57
45793;BME280;31495;42.740;22.908;2023-07-30T03:21:12;93010.34;;;16.47;66.37
45793;BME280;31495;42.740;22.908;2023-07-30T03:22:11;92968.59;;;16.20;66.40
45793;BME280;31495;42.740;22.908;2023-07-30T03:23:11;92986.38;;;16.23;66.83
45793;BME280;31495;42.740;22.908;2023-07-30T03:24:10;92983.94;;;16.11;67.25
45793;BME280;31495;42.740;22.908;2023-07-30T03:25:09;92981.72;;;15.97;67.71
45793;BME280;31495;42.740;22.908;2023-07-30T03:26:09;92999.25;;;16.02;68.22
45793;BME280;31495;42.740;22.908;2023-07-30T03:27:08;92997.41;;;16.03;68.13
45793;BME280;31495;42.740;22.908;2023-07-30T03:28:08;93008.75;;;16.13;67.98
45793;BME280;31495;42.740;22.908;2023-07-30T03:29:07;92988.25;;;16.00;68.14
45793;BME280;31495;42.740;22.908;2023-07-30T03:30:07;92990.78;;;15.90;68.27
45793;BME280;31495;42.740;22.908;2023-07-30T03:31:06;92987.91;;;15.91;67.92
45793;BME280;31495;42.740;22.908;2023-07-30T03:32:06;92984.78;;;15.89;68.09
45793;BME280;31495;42.740;22.908;2023-07-30T03:33:05;93009.09;;;15.95;68.50
45793;BME280;31495;42.740;22.908;2023-07-30T03:34:05;92990.38;;;15.76;68.70
45793;BME280;31495;42.740;22.908;2023-07-30T03:35:04;92985.31;;;15.69;68.64
45793;BME280;31495;42.740;22.908;2023-07-30T03:36:04;93007.16;;;15.85;68.70
45793;BME280;31495;42.740;22.908;2023-07-30T03:37:04;92998.34;;;15.91;68.64
45793;BME280;31495;42.740;22.908;2023-07-30T03:38:03;93002.09;;;16.01;68.25
45793;BME280;31495;42.740;22.908;2023-07-30T03:39:03;93015.78;;;16.13;67.97
45793;BME280;31495;42.740;22.908;2023-07-30T03:40:02;93008.47;;;16.15;67.84
45793;BME280;31495;42.740;22.908;2023-07-30T03:41:04;93005.63;;;16.16;67.75
45793;BME280;31495;42.740;22.908;2023-07-30T03:42:04;93009.63;;;16.24;67.73
45793;BME280;31495;42.740;22.908;2023-07-30T03:43:03;93005.38;;;16.18;67.90
45793;BME280;31495;42.740;22.908;2023-07-30T03:44:03;93023.53;;;16.30;67.81
45793;BME280;31495;42.740;22.908;2023-07-30T03:45:03;92984.94;;;16.10;67.90
45793;BME280;31495;42.740;22.908;2023-07-30T03:46:02;93015.41;;;16.31;67.45
45793;BME280;31495;42.740;22.908;2023-07-30T03:47:02;92994.50;;;16.26;67.24
45793;BME280;31495;42.740;22.908;2023-07-30T03:48:02;92986.91;;;16.25;67.07
45793;BME280;31495;42.740;22.908;2023-07-30T03:49:02;93007.69;;;16.42;66.79
45793;BME280;31495;42.740;22.908;2023-07-30T03:50:02;93003.09;;;16.54;66.69
45793;BME280;31495;42.740;22.908;2023-07-30T03:51:01;93006.19;;;16.51;66.80
45793;BME280;31495;42.740;22.908;2023-07-30T03:52:02;93019.91;;;16.68;66.40
45793;BME280;31495;42.740;22.908;2023-07-30T03:53:02;93007.06;;;16.62;66.51
45793;BME280;31495;42.740;22.908;2023-07-30T03:54:01;93014.38;;;16.60;66.74
45793;BME280;31495;42.740;22.908;2023-07-30T03:55:00;93008.34;;;16.59;66.70
45793;BME280;31495;42.740;22.908;2023-07-30T03:56:01;93012.00;;;16.58;66.61
45793;BME280;31495;42.740;22.908;2023-07-30T03:57:00;93016.25;;;16.64;66.88
45793;BME280;31495;42.740;22.908;2023-07-30T03:58:00;92999.91;;;16.47;66.67
45793;BME280;31495;42.740;22.908;2023-07-30T03:58:59;93015.03;;;16.45;66.74
45793;BME280;31495;42.740;22.908;2023-07-30T03:59:59;93006.81;;;16.31;67.30
45793;BME280;31495;42.740;22.908;2023-07-30T04:00:58;93029.59;;;16.41;67.52
45793;BME280;31495;42.740;22.908;2023-07-30T04:01:58;92989.41;;;16.09;67.90
45793;BME280;31495;42.740;22.908;2023-07-30T04:02:57;93009.09;;;16.22;67.98
45793;BME280;31495;42.740;22.908;2023-07-30T04:03:57;93016.91;;;16.22;68.24
45793;BME280;31495;42.740;22.908;2023-07-30T04:04:56;93032.66;;;16.32;68.42
45793;BME280;31495;42.740;22.908;2023-07-30T04:05:55;92978.91;;;16.04;68.27
45793;BME280;31495;42.740;22.908;2023-07-30T04:06:55;93027.75;;;16.36;68.69
45793;BME280;31495;42.740;22.908;2023-07-30T04:07:54;92999.13;;;16.19;68.53
45793;BME280;31495;42.740;22.908;2023-07-30T04:08:54;92954.44;;;15.83;68.55
45793;BME280;31495;42.740;22.908;2023-07-30T04:09:53;93021.94;;;16.29;68.39
45793;BME280;31495;42.740;22.908;2023-07-30T04:10:52;93006.78;;;16.26;68.04
45793;BME280;31495;42.740;22.908;2023-07-30T04:11:52;93028.38;;;16.48;68.36
45793;BME280;31495;42.740;22.908;2023-07-30T04:12:51;93017.34;;;16.41;68.47
45793;BME280;31495;42.740;22.908;2023-07-30T04:13:51;93020.50;;;16.43;68.18
45793;BME280;31495;42.740;22.908;2023-07-30T04:14:50;93023.19;;;16.53;68.27
45793;BME280;31495;42.740;22.908;2023-07-30T04:15:50;93017.75;;;16.60;67.90
45793;BME280;31495;42.740;22.908;2023-07-30T04:16:50;93014.69;;;16.68;67.52
45793;BME280;31495;42.740;22.908;2023-07-30T04:17:49;92992.97;;;16.63;67.02
45793;BME280;31495;42.740;22.908;2023-07-30T04:18:49;93012.16;;;16.79;66.78
45793;BME280;31495;42.740;22.908;2023-07-30T04:19:48;93003.78;;;16.77;66.81
45793;BME280;31495;42.740;22.908;2023-07-30T04:20:48;93038.19;;;16.96;67.13
45793;BME280;31495;42.740;22.908;2023-07-30T04:21:47;93036.34;;;16.96;67.19
45793;BME280;31495;42.740;22.908;2023-07-30T04:22:47;93012.69;;;16.81;67.11
45793;BME280;31495;42.740;22.908;2023-07-30T04:23:46;93025.56;;;16.87;67.07
45793;BME280;31495;42.740;22.908;2023-07-30T04:24:47;93000.38;;;16.76;66.77
45793;BME280;31495;42.740;22.908;2023-07-30T04:25:48;93019.56;;;16.92;66.88
45793;BME280;31495;42.740;22.908;2023-07-30T04:26:48;93014.41;;;16.97;66.42
45793;BME280;31495;42.740;22.908;2023-07-30T04:27:47;93005.22;;;16.95;66.39
45793;BME280;31495;42.740;22.908;2023-07-30T04:28:47;93023.34;;;17.06;66.31
45793;BME280;31495;42.740;22.908;2023-07-30T04:29:46;93008.97;;;17.04;66.44
45793;BME280;31495;42.740;22.908;2023-07-30T04:30:46;93021.25;;;17.08;66.31
45793;BME280;31495;42.740;22.908;2023-07-30T04:31:49;92996.13;;;16.97;66.28
45793;BME280;31495;42.740;22.908;2023-07-30T04:32:48;93038.09;;;17.28;66.40
45793;BME280;31495;42.740;22.908;2023-07-30T04:33:47;92992.78;;;17.07;65.70
45793;BME280;31495;42.740;22.908;2023-07-30T04:34:47;93017.97;;;17.23;66.22
45793;BME280;31495;42.740;22.908;2023-07-30T04:35:46;93006.91;;;17.11;65.91
45793;BME280;31495;42.740;22.908;2023-07-30T04:36:46;93014.78;;;17.21;66.33
45793;BME280;31495;42.740;22.908;2023-07-30T04:37:45;92997.00;;;17.18;65.94
45793;BME280;31495;42.740;22.908;2023-07-30T04:38:44;93013.00;;;17.27;66.19
45793;BME280;31495;42.740;22.908;2023-07-30T04:39:44;93003.56;;;17.26;66.09
45793;BME280;31495;42.740;22.908;2023-07-30T04:40:43;92982.31;;;17.07;66.03
45793;BME280;31495;42.740;22.908;2023-07-30T04:41:43;93023.25;;;17.39;66.10
45793;BME280;31495;42.740;22.908;2023-07-30T04:42:42;93007.28;;;17.30;65.89
45793;BME280;31495;42.740;22.908;2023-07-30T04:43:41;93011.47;;;17.36;66.04
45793;BME280;31495;42.740;22.908;2023-07-30T04:44:41;93041.19;;;17.68;65.70
45793;BME280;31495;42.740;22.908;2023-07-30T04:45:42;93032.00;;;17.60;65.71
45793;BME280;31495;42.740;22.908;2023-07-30T04:46:42;93048.00;;;17.74;65.32
45793;BME280;31495;42.740;22.908;2023-07-30T04:47:41;93022.06;;;17.62;65.26
45793;BME280;31495;42.740;22.908;2023-07-30T04:48:41;93031.78;;;17.77;65.40
45793;BME280;31495;42.740;22.908;2023-07-30T04:49:40;93046.50;;;17.88;65.46
45793;BME280;31495;42.740;22.908;2023-07-30T04:50:39;93034.97;;;17.84;65.19
45793;BME280;31495;42.740;22.908;2023-07-30T04:51:41;93024.75;;;17.77;65.18
45793;BME280;31495;42.740;22.908;2023-07-30T04:52:40;93044.16;;;17.92;65.16
45793;BME280;31495;42.740;22.908;2023-07-30T04:53:40;93038.94;;;17.92;64.78
45793;BME280;31495;42.740;22.908;2023-07-30T04:54:39;93026.88;;;17.86;64.97
45793;BME280;31495;42.740;22.908;2023-07-30T04:55:38;93022.41;;;17.86;64.68
45793;BME280;31495;42.740;22.908;2023-07-30T04:56:38;93029.53;;;17.96;64.35
45793;BME280;31495;42.740;22.908;2023-07-30T04:57:37;93027.44;;;17.93;64.28
45793;BME280;31495;42.740;22.908;2023-07-30T04:58:37;93010.91;;;17.87;64.71
45793;BME280;31495;42.740;22.908;2023-07-30T04:59:36;93006.47;;;17.88;64.91
45793;BME280;31495;42.740;22.908;2023-07-30T05:00:36;93010.41;;;17.90;64.41
45793;BME280;31495;42.740;22.908;2023-07-30T05:01:35;92900.56;;;17.27;64.70
45793;BME280;31495;42.740;22.908;2023-07-30T05:02:34;93010.44;;;18.00;64.52
45793;BME280;31495;42.740;22.908;2023-07-30T05:03:34;93011.75;;;18.08;64.53
45793;BME280;31495;42.740;22.908;2023-07-30T05:04:33;92991.81;;;17.97;64.17
45793;BME280;31495;42.740;22.908;2023-07-30T05:05:32;92926.78;;;17.53;64.23
45793;BME280;31495;42.740;22.908;2023-07-30T05:06:32;92994.75;;;18.11;64.25
45793;BME280;31495;42.740;22.908;2023-07-30T05:07:32;93009.69;;;18.15;64.16
45793;BME280;31495;42.740;22.908;2023-07-30T05:08:31;93028.28;;;18.34;63.92
45793;BME280;31495;42.740;22.908;2023-07-30T05:09:31;93016.53;;;18.32;63.65
45793;BME280;31495;42.740;22.908;2023-07-30T05:10:30;93002.88;;;18.25;63.56
45793;BME280;31495;42.740;22.908;2023-07-30T05:11:29;93010.47;;;18.31;63.55
45793;BME280;31495;42.740;22.908;2023-07-30T05:12:29;93034.34;;;18.50;63.57